createdAt,value
2018-08-06T00:01:30.860Z,8.53
2018-08-06T00:04:00.535Z,10.80
2018-08-06T00:06:29.830Z,8.43
2018-08-06T00:08:59.238Z,10.20
2018-08-06T00:11:28.981Z,8.97
2018-08-06T00:13:58.585Z,9.60
2018-08-06T00:16:28.306Z,8.63
2018-08-06T00:18:57.869Z,11.33
2018-08-06T00:21:27.453Z,14.10
2018-08-06T00:23:56.953Z,13.10
2018-08-06T00:26:26.308Z,11.33
2018-08-06T00:28:55.630Z,16.07
2018-08-06T00:31:25.227Z,14.70
2018-08-06T00:33:55.069Z,11.30
2018-08-06T00:36:24.646Z,11.20
2018-08-06T00:38:54.184Z,13.43
2018-08-06T00:41:23.597Z,20.53
2018-08-06T00:44:04.003Z,11.80
2018-08-06T00:49:26.236Z,19.57
2018-08-06T00:51:55.618Z,6.87
2018-08-06T00:54:25.054Z,9.33
2018-08-06T00:56:54.480Z,9.20
2018-08-06T00:59:23.626Z,10.03
2018-08-06T01:01:53.708Z,10.27
2018-08-06T01:04:23.675Z,8.57
2018-08-06T01:06:53.349Z,14.40
2018-08-06T01:09:23.121Z,8.40
2018-08-06T01:11:52.680Z,10.47
2018-08-06T01:14:22.028Z,11.97
2018-08-06T01:16:51.487Z,10.90
2018-08-06T01:19:20.838Z,10.30
2018-08-06T01:21:50.333Z,7.83
2018-08-06T01:24:20.272Z,14.07
2018-08-06T01:26:49.427Z,15.93
2018-08-06T01:29:18.891Z,10.97
2018-08-06T01:31:48.019Z,12.80
2018-08-06T01:37:14.711Z,9.80
2018-08-06T01:39:43.997Z,15.53
2018-08-06T01:42:13.530Z,9.83
2018-08-06T01:44:43.065Z,13.97
2018-08-06T01:47:12.309Z,8.17
2018-08-06T01:49:41.791Z,11.17
2018-08-06T01:52:11.564Z,18.97
2018-08-06T01:54:40.885Z,22.93
2018-08-06T01:57:10.736Z,16.17
2018-08-06T01:59:40.228Z,9.10
2018-08-06T02:02:09.798Z,12.80
2018-08-06T02:04:39.046Z,9.93
2018-08-06T02:07:08.976Z,9.40
2018-08-06T02:09:38.455Z,9.63
2018-08-06T02:12:08.834Z,8.67
2018-08-06T03:16:56.154Z,15.00
2018-08-06T04:56:26.439Z,21.20
2018-08-06T05:31:46.630Z,10.10
2018-08-06T05:34:16.244Z,6.80
2018-08-06T06:24:10.695Z,7.70
2018-08-06T06:47:16.278Z,6.80
2018-08-06T07:05:14.318Z,7.15
2018-08-06T08:00:48.250Z,6.45
2018-08-06T09:09:14.829Z,2.10
2018-08-06T09:31:29.869Z,2.70
2018-08-06T09:33:59.238Z,2.75
2018-08-06T09:38:58.998Z,3.70
2018-08-06T09:41:28.135Z,2.70
2018-08-06T09:43:57.199Z,4.60
2018-08-06T09:46:26.193Z,2.70
2018-08-06T09:48:55.394Z,3.60
2018-08-06T09:51:24.488Z,2.37
2018-08-06T09:53:53.616Z,4.90
2018-08-06T09:56:22.356Z,5.55
2018-08-06T09:58:51.529Z,3.30
2018-08-06T10:01:25.749Z,4.40
2018-08-06T10:03:54.659Z,6.70
2018-08-06T10:06:24.119Z,3.73
2018-08-06T10:08:52.865Z,7.67
2018-08-06T10:11:21.687Z,3.20
2018-08-06T10:13:50.266Z,5.65
2018-08-06T10:16:18.844Z,2.10
2018-08-06T10:18:48.022Z,3.00
2018-08-06T10:21:16.965Z,3.03
2018-08-06T10:23:45.549Z,5.10
2018-08-06T10:26:14.637Z,2.47
2018-08-06T10:28:43.630Z,2.80
2018-08-06T10:31:12.709Z,1.83
2018-08-06T10:33:43.293Z,2.67
2018-08-06T10:36:12.534Z,3.73
2018-08-06T10:38:41.420Z,2.40
2018-08-06T10:41:11.421Z,6.27
2018-08-06T10:43:40.513Z,6.10
2018-08-06T10:46:09.428Z,4.20
2018-08-06T10:48:38.584Z,3.87
2018-08-06T10:51:07.703Z,2.80
2018-08-06T10:53:36.957Z,5.40
2018-08-06T10:56:05.974Z,1.57
2018-08-06T10:58:35.149Z,2.30
2018-08-06T11:01:05.857Z,2.00
2018-08-06T11:03:34.646Z,4.00
2018-08-06T11:06:03.587Z,2.13
2018-08-06T11:08:32.749Z,1.50
2018-08-06T11:11:01.639Z,3.40
2018-08-06T11:13:30.689Z,2.43
2018-08-06T11:15:59.779Z,2.55
2018-08-06T11:18:28.745Z,4.03
2018-08-06T11:20:57.621Z,3.43
2018-08-06T11:23:26.450Z,7.25
2018-08-06T11:25:54.953Z,1.83
2018-08-06T11:28:23.849Z,2.63
2018-08-06T11:30:52.667Z,1.70
2018-08-06T11:33:21.585Z,4.10
2018-08-06T11:35:50.461Z,4.00
2018-08-06T11:38:19.575Z,4.03
2018-08-06T11:40:48.662Z,5.20
2018-08-06T11:43:17.530Z,1.60
2018-08-06T11:45:46.376Z,2.13
2018-08-06T11:48:15.214Z,2.50
2018-08-06T11:50:44.295Z,3.33
2018-08-06T11:53:13.217Z,4.40
2018-08-06T11:55:42.431Z,1.80
2018-08-06T11:58:11.494Z,1.50
2018-08-06T12:00:40.343Z,6.10
2018-08-06T12:03:09.190Z,3.77
2018-08-06T12:05:38.452Z,2.60
2018-08-06T12:08:07.443Z,5.00
2018-08-06T12:10:36.336Z,1.50
2018-08-06T12:13:05.129Z,5.53
2018-08-06T12:15:33.970Z,6.33
2018-08-06T12:18:02.755Z,4.10
2018-08-06T12:20:31.753Z,2.67
2018-08-06T12:23:00.639Z,2.23
2018-08-06T12:25:29.799Z,8.60
2018-08-06T12:27:58.836Z,2.90
2018-08-06T12:30:27.800Z,7.63
2018-08-06T12:32:56.564Z,2.23
2018-08-06T12:35:25.378Z,1.67
2018-08-06T12:37:54.221Z,3.60
2018-08-06T12:40:23.637Z,1.87
2018-08-06T12:42:52.555Z,2.27
2018-08-06T12:45:21.633Z,1.87
2018-08-06T12:47:50.609Z,1.43
2018-08-06T12:50:19.401Z,1.90
2018-08-06T12:52:48.437Z,1.40
2018-08-06T12:55:18.234Z,3.90
2018-08-06T12:57:47.115Z,2.20
2018-08-06T13:00:18.219Z,1.70
2018-08-06T13:02:47.503Z,1.43
2018-08-06T13:05:17.604Z,2.30
2018-08-06T13:07:47.082Z,2.20
2018-08-06T13:10:16.299Z,9.20
2018-08-06T13:12:45.340Z,2.33
2018-08-06T13:15:14.960Z,1.40
2018-08-06T13:17:43.807Z,8.77
2018-08-06T13:20:12.549Z,2.13
2018-08-06T13:22:41.249Z,1.33
2018-08-06T13:25:11.641Z,7.73
2018-08-06T13:27:40.356Z,6.27
2018-08-06T13:30:11.658Z,1.50
2018-08-06T13:32:40.636Z,2.00
2018-08-06T13:35:09.646Z,2.33
2018-08-06T13:37:38.656Z,2.70
2018-08-06T13:40:08.426Z,1.63
2018-08-06T13:42:37.271Z,2.90
2018-08-06T13:45:07.886Z,1.27
2018-08-06T13:47:36.559Z,2.70
2018-08-06T13:50:07.101Z,1.27
2018-08-06T13:52:36.446Z,1.53
2018-08-06T13:55:05.976Z,1.43
2018-08-06T13:57:35.338Z,2.97
2018-08-06T14:00:06.192Z,3.43
2018-08-06T14:02:35.172Z,2.23
2018-08-06T14:05:04.341Z,1.30
2018-08-06T14:07:33.827Z,1.30
2018-08-06T14:10:02.814Z,1.67
2018-08-06T14:12:32.064Z,1.37
2018-08-06T14:15:00.746Z,2.53
2018-08-06T14:17:29.473Z,2.07
2018-08-06T14:19:58.350Z,1.47
2018-08-06T14:22:27.514Z,1.67
2018-08-06T14:24:57.023Z,2.67
2018-08-06T14:27:26.285Z,3.00
2018-08-06T14:29:54.893Z,1.30
2018-08-06T14:32:23.569Z,1.70
2018-08-06T14:34:52.133Z,5.77
2018-08-06T14:37:20.648Z,2.27
2018-08-06T14:39:49.296Z,1.83
2018-08-06T14:42:18.028Z,1.40
2018-08-06T14:44:47.495Z,1.43
2018-08-06T14:47:16.139Z,3.60
2018-08-06T14:49:45.028Z,1.33
2018-08-06T14:52:13.677Z,6.80
2018-08-06T14:54:42.757Z,1.60
2018-08-06T14:57:12.643Z,1.27
2018-08-06T14:59:42.669Z,6.10
2018-08-06T15:02:12.979Z,2.93
2018-08-06T15:04:43.164Z,1.20
2018-08-06T15:07:12.218Z,1.30
2018-08-06T15:09:41.547Z,1.30
2018-08-06T15:12:10.935Z,1.40
2018-08-06T15:14:39.888Z,2.73
2018-08-06T15:17:09.296Z,2.33
2018-08-06T15:19:38.224Z,7.10
2018-08-06T15:22:07.155Z,1.80
2018-08-06T15:24:36.414Z,4.80
2018-08-06T15:27:06.024Z,2.20
2018-08-06T15:29:35.565Z,16.23
2018-08-06T15:32:04.691Z,9.67
2018-08-06T15:34:33.975Z,1.77
2018-08-06T15:37:02.976Z,1.60
2018-08-06T15:39:47.957Z,3.37
2018-08-06T15:42:41.421Z,4.30
2018-08-06T15:45:12.176Z,1.37
2018-08-06T15:47:43.555Z,2.50
2018-08-06T15:50:19.524Z,1.20
2018-08-06T15:52:48.625Z,3.17
2018-08-06T15:55:18.031Z,10.00
2018-08-06T15:57:47.138Z,2.83
2018-08-06T16:00:18.427Z,3.27
2018-08-06T16:02:47.721Z,3.30
2018-08-06T16:05:16.798Z,1.50
2018-08-06T16:07:46.079Z,3.37
2018-08-06T16:10:15.691Z,3.27
2018-08-06T16:12:44.559Z,2.70
2018-08-06T16:15:14.753Z,3.80
2018-08-06T16:17:44.546Z,4.90
2018-08-06T16:20:14.649Z,3.90
2018-08-06T16:22:43.774Z,4.03
2018-08-06T16:25:14.096Z,1.97
2018-08-06T16:27:43.159Z,6.40
2018-08-06T16:30:20.923Z,4.50
2018-08-06T16:32:50.183Z,8.80
2018-08-06T16:35:37.237Z,2.30
2018-08-06T16:38:07.713Z,2.33
2018-08-06T16:40:36.664Z,3.80
2018-08-06T16:43:05.652Z,4.53
2018-08-06T16:45:34.559Z,2.00
2018-08-06T16:48:03.618Z,2.40
2018-08-06T16:50:32.508Z,3.10
2018-08-06T16:53:01.395Z,2.90
2018-08-06T16:55:29.866Z,4.87
2018-08-06T16:57:58.777Z,18.70
2018-08-06T17:00:27.536Z,2.03
2018-08-06T17:02:56.336Z,1.70
2018-08-06T17:05:25.774Z,4.23
2018-08-06T17:07:55.517Z,2.50
2018-08-06T17:10:24.568Z,2.40
2018-08-06T17:12:54.824Z,7.67
2018-08-06T17:15:23.823Z,2.73
2018-08-06T17:17:54.313Z,5.50
2018-08-06T17:20:24.017Z,6.43
2018-08-06T17:22:54.711Z,6.00
2018-08-06T17:25:23.552Z,3.97
2018-08-06T17:27:52.435Z,3.57
2018-08-06T17:30:21.413Z,3.27
2018-08-06T17:32:50.203Z,6.00
2018-08-06T17:35:18.909Z,4.10
2018-08-06T17:37:47.936Z,6.33
2018-08-06T17:40:18.671Z,2.60
2018-08-06T17:42:47.690Z,1.60
2018-08-06T17:45:23.043Z,2.83
2018-08-06T17:47:52.246Z,2.90
2018-08-06T17:50:22.330Z,3.13
2018-08-06T17:52:51.960Z,5.47
2018-08-06T17:55:21.859Z,13.50
2018-08-06T17:57:50.554Z,3.43
2018-08-06T18:00:19.987Z,5.27
2018-08-06T18:02:48.831Z,4.60
2018-08-06T18:05:18.157Z,5.97
2018-08-06T18:07:47.079Z,5.13
2018-08-06T18:10:16.981Z,7.50
2018-08-06T18:12:46.176Z,12.00
2018-08-06T18:15:15.109Z,8.43
2018-08-06T18:17:44.055Z,4.50
2018-08-06T18:20:15.078Z,2.33
2018-08-06T18:22:44.258Z,4.10
2018-08-06T18:25:15.077Z,2.70
2018-08-06T18:27:44.844Z,7.70
2018-08-06T18:30:16.900Z,9.37
2018-08-06T18:32:45.568Z,2.93
2018-08-06T18:35:15.828Z,3.57
2018-08-06T18:37:44.698Z,4.60
2018-08-06T18:40:14.588Z,3.53
2018-08-06T18:42:43.562Z,1.77
2018-08-06T18:45:17.069Z,3.47
2018-08-06T18:47:47.012Z,6.43
2018-08-06T18:50:16.844Z,6.80
2018-08-06T18:52:46.764Z,7.93
2018-08-06T18:55:16.193Z,4.70
2018-08-06T18:57:45.681Z,2.03
2018-08-06T19:00:19.821Z,3.50
2018-08-06T19:02:48.972Z,4.83
2018-08-06T19:05:17.960Z,5.40
2018-08-06T19:07:46.850Z,3.33
2018-08-06T19:10:15.719Z,3.43
2018-08-06T19:12:50.299Z,6.67
2018-08-06T19:15:19.292Z,3.83
2018-08-06T19:17:53.409Z,3.83
2018-08-06T19:20:22.352Z,6.90
2018-08-06T19:22:51.388Z,2.70
2018-08-06T19:27:55.518Z,6.63
2018-08-06T19:32:58.004Z,8.70
2018-08-06T19:35:26.755Z,3.70
2018-08-06T19:37:55.528Z,3.70
2018-08-06T19:47:53.468Z,5.60
2018-08-06T19:57:58.237Z,3.60
2018-08-06T20:00:28.166Z,2.65
2018-08-06T20:05:26.700Z,3.15
2018-08-06T20:07:55.617Z,8.50
2018-08-06T20:17:11.342Z,6.50
2018-08-06T20:19:40.427Z,2.50
2018-08-06T20:22:15.883Z,10.33
2018-08-06T20:24:45.208Z,5.00
2018-08-06T20:27:13.995Z,4.03
2018-08-06T20:37:07.433Z,7.90
2018-08-06T20:42:04.597Z,4.80
2018-08-06T20:47:01.975Z,7.50
2018-08-06T21:14:11.544Z,6.10
2018-08-06T21:51:17.331Z,2.85
2018-08-06T21:53:46.627Z,2.50
2018-08-06T22:08:39.297Z,4.20
2018-08-06T22:11:08.884Z,3.70
2018-08-06T22:13:37.704Z,4.47
2018-08-06T22:16:06.769Z,4.70
2018-08-06T22:18:35.957Z,3.50
2018-08-06T22:38:23.566Z,3.85
2018-08-06T22:53:14.407Z,9.00
2018-08-06T23:18:03.597Z,4.70
2018-08-06T23:23:00.989Z,3.80
2018-08-06T23:45:19.073Z,4.40
2018-08-06T23:47:48.278Z,2.10
2018-08-06T23:50:17.676Z,3.20
2018-08-06T23:52:47.086Z,17.70
2018-08-06T23:55:18.619Z,5.00
